Time;durP1;ratioP1;P1;durP2;ratioP2;P2;SDS_P1;SDS_P2;PMS_P1;PMS_P2;Temp;Humidity;BMP_temperature;BMP_pressure;BME280_temperature;BME280_humidity;BME280_pressure;Samples;Min_cycle;Max_cycle;Signal;HPM_P1;HPM_P2
2022/12/25 00:01:22;;;;;;;5.18;1.70;;;10.50;1.00;;;;;;6263281;23;20067;-70
2022/12/25 00:03:55;;;;;;;5.35;2.00;;;10.40;1.00;;;;;;6261605;23;20068;-66
2022/12/25 00:06:29;;;;;;;4.10;2.10;;;10.30;64.00;;;;;;6250863;22;20021;-67
2022/12/25 00:09:06;;;;;;;5.43;2.20;;;10.10;86.30;;;;;;6273673;23;20009;-65
2022/12/25 00:11:40;;;;;;;5.32;2.28;;;10.00;99.90;;;;;;6263326;23;19999;-67
2022/12/25 00:14:16;;;;;;;5.13;2.55;;;9.80;99.90;;;;;;6263337;23;20045;-66
2022/12/25 00:16:55;;;;;;;2.60;1.88;;;9.70;99.90;;;;;;6287172;23;20009;-66
2022/12/25 00:19:30;;;;;;;4.70;2.38;;;9.70;99.90;;;;;;6286223;23;20058;-66
2022/12/25 00:22:08;;;;;;;7.38;2.83;;;9.60;99.90;;;;;;6263224;23;20359;-67
2022/12/25 00:24:39;;;;;;;5.10;2.70;;;9.60;99.90;;;;;;6239835;23;20077;-66
2022/12/25 00:27:17;;;;;;;3.15;2.30;;;9.60;99.90;;;;;;6263311;23;20003;-66
2022/12/25 00:29:51;;;;;;;2.40;1.88;;;9.60;99.90;;;;;;6262842;23;20058;-68
2022/12/25 00:32:22;;;;;;;5.38;2.13;;;9.70;99.90;;;;;;6262897;23;20001;-64
2022/12/25 00:34:56;;;;;;;3.95;2.28;;;9.80;99.90;;;;;;6264761;23;20006;-66
2022/12/25 00:37:30;;;;;;;8.63;2.72;;;9.80;93.60;;;;;;6262312;23;20014;-68
2022/12/25 00:40:01;;;;;;;4.78;2.50;;;9.80;76.70;;;;;;6287780;23;20003;-65
2022/12/25 00:42:38;;;;;;;5.07;1.70;;;9.80;93.60;;;;;;6263046;23;20022;-65
2022/12/25 00:45:09;;;;;;;5.72;2.90;;;9.70;99.90;;;;;;6263528;23;20007;-67
2022/12/25 00:47:41;;;;;;;6.20;2.90;;;9.70;99.90;;;;;;6264749;23;20058;-68
2022/12/25 00:50:14;;;;;;;5.50;2.22;;;9.60;99.90;;;;;;6263522;23;20284;-66
2022/12/25 00:52:50;;;;;;;5.18;2.05;;;9.50;99.90;;;;;;6265067;23;19991;-66
2022/12/25 00:55:25;;;;;;;6.32;2.38;;;9.50;99.90;;;;;;6286729;22;20033;-66
2022/12/25 00:58:02;;;;;;;5.15;2.83;;;9.40;99.90;;;;;;6262680;23;20459;-67
2022/12/25 01:00:35;;;;;;;3.97;2.30;;;9.40;99.90;;;;;;6257053;23;19998;-68
2022/12/25 01:03:15;;;;;;;6.22;2.17;;;9.30;99.90;;;;;;6242337;23;20023;-66
2022/12/25 01:05:55;;;;;;;4.00;1.85;;;9.40;99.90;;;;;;6254278;23;20065;-65
2022/12/25 01:08:30;;;;;;;4.60;2.00;;;9.40;99.90;;;;;;6263124;23;20010;-67
2022/12/25 01:11:10;;;;;;;5.15;2.47;;;9.30;99.90;;;;;;6264209;23;20686;-68
2022/12/25 01:13:46;;;;;;;3.15;1.30;;;9.30;99.90;;;;;;6263801;23;19999;-64
2022/12/25 01:16:18;;;;;;;2.45;1.55;;;9.30;99.90;;;;;;6262496;23;20319;-67
2022/12/25 01:18:52;;;;;;;6.30;1.00;;;9.60;90.00;;;;;;6286741;23;20003;-66
2022/12/25 01:21:26;;;;;;;1.02;1.00;;;10.00;1.70;;;;;;6238624;23;20050;-67
2022/12/25 01:24:02;;;;;;;1.35;0.90;;;10.20;1.00;;;;;;6265642;23;20054;-66
2022/12/25 01:26:35;;;;;;;2.53;1.10;;;10.30;1.00;;;;;;6262682;23;20005;-66
2022/12/25 01:29:12;;;;;;;3.58;0.90;;;10.30;1.00;;;;;;6263120;23;19995;-66
2022/12/25 01:32:06;;;;;;;2.30;1.55;;;10.30;1.00;;;;;;6241922;23;20053;-64
2022/12/25 01:34:38;;;;;;;4.13;1.30;;;10.40;1.00;;;;;;6263238;23;20017;-67
2022/12/25 01:37:18;;;;;;;1.25;0.80;;;10.40;1.00;;;;;;6264860;23;20058;-67
2022/12/25 01:39:53;;;;;;;4.10;1.00;;;10.40;99.90;;;;;;6241548;23;20050;-69
2022/12/25 01:42:27;;;;;;;;;;;10.50;99.90;;;;;;6264143;23;20014;-65
2022/12/25 01:45:29;;;;;;;2.85;1.00;;;10.50;99.90;;;;;;6263225;23;19905;-66
2022/12/25 01:48:08;;;;;;;1.88;0.80;;;10.50;99.90;;;;;;6263503;23;19999;-65
2022/12/25 01:50:43;;;;;;;3.80;1.38;;;10.50;99.90;;;;;;6264337;23;20024;-65
2022/12/25 01:53:20;;;;;;;2.95;1.30;;;10.40;99.90;;;;;;6264216;23;20009;-67
2022/12/25 01:56:00;;;;;;;2.92;1.20;;;10.40;99.90;;;;;;6287894;23;20026;-67
2022/12/25 01:58:34;;;;;;;2.13;1.10;;;10.40;4.50;;;;;;6265742;23;20050;-67
2022/12/25 02:01:12;;;;;;;2.40;1.10;;;10.50;1.00;;;;;;6264332;23;19995;-68
2022/12/25 02:03:48;;;;;;;4.53;0.98;;;10.40;1.00;;;;;;6240558;23;20481;-63
2022/12/25 02:06:29;;;;;;;2.42;1.30;;;10.50;1.00;;;;;;6253677;22;20042;-65
2022/12/25 02:09:03;;;;;;;3.17;1.50;;;10.40;1.00;;;;;;6287249;23;20061;-67
2022/12/25 02:11:58;;;;;;;1.98;0.95;;;10.40;1.00;;;;;;6241185;23;20268;-65
2022/12/25 02:14:36;;;;;;;3.17;1.10;;;10.40;1.00;;;;;;6287531;23;20006;-66
2022/12/25 02:17:19;;;;;;;2.08;1.40;;;10.50;1.00;;;;;;6265943;23;20066;-65
2022/12/25 02:20:18;;;;;;;1.77;1.00;;;10.50;1.00;;;;;;6265801;23;20058;-67
2022/12/25 02:23:17;;;;;;;2.45;1.08;;;10.40;1.00;;;;;;6266225;23;20089;-67
2022/12/25 02:26:03;;;;;;;4.97;1.20;;;10.50;1.00;;;;;;6181160;23;20022;-66
2022/12/25 02:28:42;;;;;;;2.05;1.58;;;10.50;1.00;;;;;;6179437;23;20394;-66
2022/12/25 02:31:21;;;;;;;5.05;1.75;;;10.40;1.00;;;;;;6245782;23;19999;-65
2022/12/25 02:34:03;;;;;;;6.10;2.38;;;10.40;3.90;;;;;;6264366;23;20070;-65
2022/12/25 02:36:40;;;;;;;3.17;2.00;;;10.20;56.90;;;;;;6264626;23;20002;-64
2022/12/25 03:06:41;;;;;;;3.83;2.08;;;9.70;99.90;;;;;;6266264;23;20186;-64
2022/12/25 07:35:52;;;;;;;;;;;7.80;99.90;;;;;;6262333;23;20328;-65
2022/12/25 07:38:31;;;;;;;7.00;3.25;;;8.00;99.90;;;;;;6237990;23;19909;-65
2022/12/25 07:41:05;;;;;;;4.15;3.30;;;8.10;99.90;;;;;;6225621;23;20015;-65
2022/12/25 07:43:38;;;;;;;5.85;3.17;;;8.20;99.90;;;;;;6209180;23;20007;-67
2022/12/25 07:46:12;;;;;;;8.07;3.30;;;8.10;99.90;;;;;;6208468;23;20004;-66
2022/12/25 07:48:46;;;;;;;7.03;3.60;;;8.30;99.90;;;;;;6208289;23;20003;-64
2022/12/25 07:51:29;;;;;;;6.95;3.55;;;8.40;99.90;;;;;;6209681;23;20309;-65
2022/12/25 07:54:03;;;;;;;6.55;3.28;;;8.60;99.90;;;;;;6210207;23;19995;-66
2022/12/25 07:56:35;;;;;;;9.13;3.63;;;8.80;99.90;;;;;;6234537;23;20022;-68
2022/12/25 07:59:08;;;;;;;6.43;3.88;;;9.00;99.90;;;;;;6332616;23;20013;-66
2022/12/25 08:01:43;;;;;;;11.15;5.18;;;9.10;99.90;;;;;;6209684;23;20010;-66
2022/12/25 08:04:16;;;;;;;10.32;4.82;;;9.20;99.90;;;;;;6197146;23;20172;-66
2022/12/25 08:06:58;;;;;;;13.43;5.65;;;9.30;99.90;;;;;;6220459;23;20019;-68
2022/12/25 08:09:30;;;;;;;17.50;6.22;;;9.40;99.90;;;;;;6234027;23;20147;-67
2022/12/25 08:12:06;;;;;;;10.90;5.18;;;9.50;99.90;;;;;;6232843;23;20001;-68
2022/12/25 08:14:42;;;;;;;11.45;5.70;;;9.60;99.90;;;;;;6233975;23;20399;-71
2022/12/25 08:17:13;;;;;;;10.00;5.35;;;9.60;99.90;;;;;;6233844;23;20033;-68
2022/12/25 08:19:46;;;;;;;14.30;6.93;;;9.70;99.90;;;;;;6233457;23;20072;-66
2022/12/25 08:22:18;;;;;;;16.92;8.10;;;9.80;99.90;;;;;;6232931;23;20358;-66
2022/12/25 08:24:57;;;;;;;12.50;7.63;;;9.80;99.90;;;;;;6232899;23;20017;-66
2022/12/25 08:27:34;;;;;;;10.65;6.15;;;9.80;99.90;;;;;;6217751;23;20089;-65
2022/12/25 08:30:09;;;;;;;12.38;6.07;;;9.90;99.90;;;;;;6362060;23;19999;-66
2022/12/25 08:32:42;;;;;;;13.32;6.57;;;10.00;99.90;;;;;;6362091;23;19999;-66
2022/12/25 08:35:16;;;;;;;13.63;6.60;;;10.10;99.90;;;;;;6262879;23;20014;-66
2022/12/25 08:37:47;;;;;;;12.32;5.93;;;10.30;99.90;;;;;;6362790;23;20009;-67
2022/12/25 08:40:20;;;;;;;10.40;5.00;;;10.50;99.90;;;;;;6262295;23;20066;-66
2022/12/25 08:42:55;;;;;;;10.65;5.32;;;10.70;99.90;;;;;;6362557;23;20484;-63
2022/12/25 08:45:29;;;;;;;10.63;5.03;;;10.70;99.90;;;;;;6238894;23;20013;-65
2022/12/25 08:48:00;;;;;;;9.43;5.05;;;10.70;99.90;;;;;;6362231;23;20058;-68
2022/12/25 08:50:32;;;;;;;8.38;4.60;;;10.60;99.90;;;;;;6261552;23;19999;-69
2022/12/25 08:53:03;;;;;;;9.18;4.75;;;10.60;99.90;;;;;;6339138;23;20468;-64
2022/12/25 08:55:40;;;;;;;9.35;4.40;;;10.60;99.90;;;;;;6262394;23;20011;-66
2022/12/25 08:58:13;;;;;;;7.47;4.00;;;10.70;99.90;;;;;;6389450;23;19991;-66
2022/12/25 09:00:48;;;;;;;8.38;4.55;;;10.80;99.90;;;;;;6239039;23;20252;-68
2022/12/25 09:03:22;;;;;;;6.20;4.10;;;11.00;99.90;;;;;;6363497;23;20360;-68
2022/12/25 09:05:55;;;;;;;11.88;5.10;;;11.10;99.90;;;;;;6383297;23;20355;-67
2022/12/25 09:08:29;;;;;;;7.53;4.45;;;11.30;99.90;;;;;;6419950;23;20003;-67
2022/12/25 09:11:03;;;;;;;7.07;4.70;;;11.30;99.90;;;;;;6422310;23;20192;-65
2022/12/25 09:13:40;;;;;;;;;;;11.50;99.90;;;;;;6421577;23;20059;-67
2022/12/25 09:16:19;;;;;;;9.85;5.20;;;11.70;99.90;;;;;;6421168;23;19904;-68
2022/12/25 09:18:52;;;;;;;14.52;4.43;;;11.80;6.80;;;;;;6420096;23;20056;-65
2022/12/25 09:21:29;;;;;;;6.72;4.35;;;11.90;1.00;;;;;;6344790;23;20003;-66
2022/12/25 09:24:04;;;;;;;9.98;5.13;;;12.00;1.00;;;;;;6395898;23;20419;-67
2022/12/25 09:26:41;;;;;;;13.85;7.18;;;12.20;1.00;;;;;;6419613;23;20349;-66
2022/12/25 09:29:17;;;;;;;22.67;9.43;;;12.20;1.00;;;;;;6422077;23;20602;-68
2022/12/25 09:31:50;;;;;;;16.25;7.63;;;12.30;1.00;;;;;;6395677;23;20333;-67
2022/12/25 09:34:26;;;;;;;8.38;5.85;;;12.40;1.00;;;;;;6394364;23;20372;-67
2022/12/25 09:36:57;;;;;;;16.88;6.00;;;12.40;1.00;;;;;;6395915;23;20000;-66
2022/12/25 09:39:28;;;;;;;9.25;5.55;;;12.50;1.00;;;;;;6419409;23;19996;-67
2022/12/25 09:42:20;;;;;;;12.05;5.43;;;12.50;1.00;;;;;;6409277;22;20040;-67
2022/12/25 09:44:56;;;;;;;8.00;4.43;;;12.70;1.00;;;;;;6395267;23;20000;-66
2022/12/25 09:47:37;;;;;;;6.47;4.32;;;12.70;1.00;;;;;;6394845;23;20007;-66
2022/12/25 09:50:14;;;;;;;15.57;4.60;;;12.70;1.00;;;;;;6420232;23;20000;-66
2022/12/25 09:52:54;;;;;;;9.50;5.10;;;12.90;1.00;;;;;;6419443;23;19994;-65
2022/12/25 09:55:35;;;;;;;12.32;5.25;;;13.00;1.00;;;;;;6394230;23;20007;-65
2022/12/25 09:58:11;;;;;;;7.68;4.05;;;13.20;1.00;;;;;;6393875;23;20000;-66
2022/12/25 10:00:58;;;;;;;5.68;3.92;;;13.10;1.00;;;;;;6393541;23;20000;-67
2022/12/25 10:03:51;;;;;;;6.20;3.42;;;13.10;1.00;;;;;;6394894;23;20087;-64
2022/12/25 10:06:31;;;;;;;6.75;4.68;;;13.20;1.00;;;;;;6243495;23;20007;-66
2022/12/25 10:09:39;;;;;;;4.75;3.67;;;13.60;1.00;;;;;;6262028;23;20117;-67
2022/12/25 10:12:31;;;;;;;6.28;4.22;;;13.80;1.00;;;;;;6210502;23;20402;-66
2022/12/25 10:15:21;;;;;;;5.75;3.85;;;14.10;1.00;;;;;;6269097;23;20006;-64
2022/12/25 10:18:27;;;;;;;6.63;3.15;;;14.20;99.90;;;;;;6237294;23;20197;-65
2022/12/25 10:21:09;;;;;;;3.80;1.98;;;14.90;1.00;;;;;;6248932;23;20013;-66
2022/12/25 10:24:08;;;;;;;4.20;2.15;;;15.50;99.90;;;;;;6227392;23;20003;-67
2022/12/25 10:26:42;;;;;;;4.40;2.28;;;15.90;1.00;;;;;;6363465;23;20003;-65
2022/12/25 10:29:23;;;;;;;3.13;1.97;;;16.30;1.00;;;;;;6261613;23;20408;-65
2022/12/25 10:31:59;;;;;;;4.57;2.00;;;16.40;1.00;;;;;;6261013;23;20003;-66
2022/12/25 10:34:34;;;;;;;6.80;3.30;;;16.40;1.00;;;;;;6239350;23;20002;-67
2022/12/25 10:37:15;;;;;;;8.05;2.38;;;16.60;1.00;;;;;;6361320;23;20021;-67
2022/12/25 10:39:51;;;;;;;3.20;2.30;;;16.40;81.00;;;;;;6347972;23;20015;-67
2022/12/25 10:42:37;;;;;;;4.65;2.30;;;16.40;1.00;;;;;;6208667;23;20003;-66
2022/12/25 10:45:09;;;;;;;4.38;2.00;;;16.50;1.00;;;;;;6257693;23;20134;-65
2022/12/25 10:47:43;;;;;;;6.63;3.22;;;17.00;1.00;;;;;;6235521;23;20506;-66
2022/12/25 10:50:24;;;;;;;;;;;17.10;1.00;;;;;;6233498;23;20356;-68
2022/12/25 10:53:04;;;;;;;6.03;3.10;;;17.80;99.90;;;;;;6234505;23;19965;-66
2022/12/25 10:56:00;;;;;;;6.28;2.40;;;17.70;1.00;;;;;;6233489;23;20424;-66
2022/12/25 10:58:39;;;;;;;5.10;2.40;;;17.80;99.90;;;;;;6234053;23;20010;-67
2022/12/25 11:01:14;;;;;;;3.53;2.42;;;17.80;1.00;;;;;;6233641;23;20002;-66
2022/12/25 11:03:50;;;;;;;3.85;2.58;;;17.50;1.00;;;;;;6257073;23;20010;-67
2022/12/25 11:06:31;;;;;;;4.60;2.88;;;17.80;1.00;;;;;;6245596;23;20444;-65
2022/12/25 11:09:05;;;;;;;3.97;3.00;;;17.50;1.00;;;;;;6255347;23;20010;-67
2022/12/25 11:11:39;;;;;;;;;;;18.50;56.30;;;;;;6232502;23;20064;-67
2022/12/25 11:14:22;;;;;;;3.05;2.22;;;19.40;1.00;;;;;;6209783;23;20191;-65
2022/12/25 11:16:55;;;;;;;3.03;2.38;;;19.90;1.00;;;;;;6255711;23;20292;-67
2022/12/25 11:19:30;;;;;;;6.15;2.65;;;20.30;99.90;;;;;;6234898;23;19991;-67
2022/12/25 11:22:03;;;;;;;6.60;2.45;;;20.20;99.90;;;;;;6210034;23;20018;-67
2022/12/25 11:24:40;;;;;;;4.00;2.33;;;20.20;99.90;;;;;;6232861;23;19987;-64
2022/12/25 11:27:27;;;;;;;5.20;2.72;;;19.60;1.00;;;;;;6232656;23;20003;-66
2022/12/25 11:30:03;;;;;;;4.40;2.47;;;19.80;14.80;;;;;;6210316;23;20002;-66
2022/12/25 11:32:46;;;;;;;4.03;2.47;;;19.70;1.00;;;;;;6232476;23;20003;-66
2022/12/25 11:35:24;;;;;;;3.03;2.63;;;19.40;1.00;;;;;;6231916;23;20011;-68
2022/12/25 11:37:55;;;;;;;7.38;2.60;;;19.40;1.00;;;;;;6209202;23;20737;-67
2022/12/25 11:40:51;;;;;;;3.38;2.15;;;19.30;1.00;;;;;;6233205;23;20525;-66
2022/12/25 11:43:32;;;;;;;5.05;3.53;;;19.40;1.00;;;;;;6256629;23;20037;-67
2022/12/25 11:46:34;;;;;;;5.35;2.88;;;19.60;1.00;;;;;;6210368;23;20055;-66
2022/12/25 11:49:11;;;;;;;5.82;2.75;;;19.80;1.00;;;;;;6209456;23;20004;-66
2022/12/25 11:51:51;;;;;;;4.72;2.72;;;19.70;1.00;;;;;;6236081;23;20064;-68
2022/12/25 11:54:37;;;;;;;5.93;2.70;;;19.40;1.00;;;;;;6208669;23;20078;-66
2022/12/25 11:57:13;;;;;;;4.10;2.42;;;19.40;1.00;;;;;;6209291;23;20330;-67
2022/12/25 11:59:56;;;;;;;3.67;2.65;;;19.60;1.00;;;;;;6207450;23;20017;-66
2022/12/25 12:02:47;;;;;;;5.40;2.58;;;20.00;1.00;;;;;;6207588;23;20011;-69
2022/12/25 12:05:24;;;;;;;3.15;2.10;;;20.50;1.00;;;;;;6223232;23;20027;-68
2022/12/25 12:08:06;;;;;;;5.97;2.50;;;20.60;1.00;;;;;;6243785;23;19992;-66
2022/12/25 12:10:44;;;;;;;5.68;2.65;;;20.50;1.00;;;;;;6209681;23;19999;-66
2022/12/25 12:13:27;;;;;;;4.82;2.70;;;21.10;1.00;;;;;;6231948;23;20034;-66
2022/12/25 12:16:02;;;;;;;4.13;2.67;;;21.10;1.00;;;;;;6209336;23;20205;-66
2022/12/25 12:18:34;;;;;;;6.55;2.58;;;21.10;99.90;;;;;;6233362;23;20419;-66
2022/12/25 12:21:21;;;;;;;4.13;2.95;;;20.80;99.90;;;;;;6208870;23;20021;-65
2022/12/25 12:24:04;;;;;;;4.20;2.60;;;20.50;99.90;;;;;;6209840;23;20002;-66
2022/12/25 12:26:43;;;;;;;3.25;2.30;;;20.20;99.90;;;;;;6232461;23;20292;-64
2022/12/25 12:29:47;;;;;;;3.60;2.30;;;20.10;1.00;;;;;;6209788;23;20029;-64
2022/12/25 12:32:48;;;;;;;3.97;2.40;;;20.00;1.00;;;;;;6210596;23;20062;-67
2022/12/25 12:35:32;;;;;;;2.58;1.85;;;19.30;99.90;;;;;;6092326;24;20005;-65
2022/12/25 12:38:08;;;;;;;3.10;2.35;;;18.90;1.00;;;;;;6091669;24;19997;-69
2022/12/25 12:40:50;;;;;;;5.03;2.40;;;19.50;1.00;;;;;;6093204;24;20064;-66
2022/12/25 12:43:35;;;;;;;5.13;3.13;;;20.20;1.00;;;;;;6092962;24;20193;-65
2022/12/25 12:46:16;;;;;;;3.08;2.35;;;20.30;99.90;;;;;;6093350;24;20015;-67
2022/12/25 12:48:53;;;;;;;3.72;2.33;;;20.70;99.90;;;;;;6092497;24;20004;-68
2022/12/25 12:51:38;;;;;;;3.92;2.22;;;21.10;99.90;;;;;;6091922;24;20005;-68
2022/12/25 12:54:28;;;;;;;2.55;2.35;;;21.30;99.90;;;;;;6091733;24;20009;-65
2022/12/25 12:57:06;;;;;;;2.90;2.33;;;21.50;99.90;;;;;;6092924;24;20029;-67
2022/12/25 12:59:47;;;;;;;3.28;2.50;;;21.40;99.90;;;;;;6115980;24;20171;-65
2022/12/25 13:02:36;;;;;;;3.53;2.80;;;21.40;99.90;;;;;;6115350;24;20009;-68
2022/12/25 13:05:19;;;;;;;3.53;2.42;;;21.90;1.00;;;;;;6158941;23;20006;-65
2022/12/25 13:08:24;;;;;;;4.80;2.30;;;22.10;1.00;;;;;;6299812;23;20001;-67
2022/12/25 13:11:13;;;;;;;4.20;2.75;;;21.20;39.90;;;;;;6239052;23;20015;-65
2022/12/25 13:13:52;;;;;;;3.92;2.75;;;20.40;91.40;;;;;;6262425;23;20078;-64
2022/12/25 13:16:29;;;;;;;3.88;2.25;;;20.40;99.90;;;;;;6362334;23;20013;-65
2022/12/25 13:19:06;;;;;;;4.15;3.20;;;20.20;99.90;;;;;;6239266;23;19995;-66
2022/12/25 13:21:39;;;;;;;6.13;3.60;;;18.30;99.90;;;;;;6261280;23;20021;-65
2022/12/25 13:24:28;;;;;;;3.90;3.35;;;17.00;99.90;;;;;;6389113;23;20010;-67
2022/12/25 13:27:22;;;;;;;5.95;4.05;;;15.50;99.90;;;;;;6362819;23;20009;-65
2022/12/25 13:29:53;;;;;;;4.60;4.10;;;14.40;1.00;;;;;;6363064;23;20070;-67
2022/12/25 13:32:30;;;;;;;6.28;4.47;;;14.00;1.00;;;;;;6263118;23;20062;-65
2022/12/25 13:35:03;;;;;;;6.70;4.20;;;13.80;1.00;;;;;;6261618;23;20336;-68
2022/12/25 13:37:41;;;;;;;7.07;4.35;;;13.80;99.90;;;;;;6261992;23;19999;-67
2022/12/25 13:40:30;;;;;;;7.43;4.80;;;14.00;1.00;;;;;;6361990;23;20329;-67
2022/12/25 13:43:12;;;;;;;6.07;4.47;;;13.60;99.90;;;;;;6360101;23;20058;-68
2022/12/25 13:45:53;;;;;;;9.00;4.65;;;13.00;1.00;;;;;;6360214;23;20013;-68
2022/12/25 13:48:25;;;;;;;10.10;4.82;;;12.70;1.00;;;;;;6261562;23;19999;-65
2022/12/25 13:51:03;;;;;;;7.75;5.07;;;12.50;1.00;;;;;;6361633;23;20003;-68
2022/12/25 13:53:42;;;;;;;7.65;4.53;;;12.30;1.00;;;;;;6264929;23;19999;-65
2022/12/25 13:56:15;;;;;;;7.93;4.82;;;11.80;1.00;;;;;;6339778;23;20018;-64
2022/12/25 13:58:47;;;;;;;5.50;4.57;;;11.50;28.00;;;;;;6262276;23;20058;-65
2022/12/25 14:01:21;;;;;;;8.45;4.82;;;11.30;70.10;;;;;;6265053;23;20439;-64
2022/12/25 14:03:56;;;;;;;7.53;5.07;;;11.20;99.90;;;;;;6241165;23;20062;-66
2022/12/25 14:06:29;;;;;;;6.90;5.60;;;11.00;99.90;;;;;;6239434;23;20020;-65
2022/12/25 14:09:01;;;;;;;7.82;5.40;;;10.80;99.90;;;;;;6264346;23;20319;-67
2022/12/25 14:11:35;;;;;;;11.32;5.13;;;10.60;99.90;;;;;;6263816;23;20038;-66
2022/12/25 14:14:28;;;;;;;8.55;6.25;;;10.50;99.90;;;;;;6238504;23;19995;-67
2022/12/25 14:17:03;;;;;;;7.38;5.20;;;10.40;99.90;;;;;;6262760;23;20010;-66
2022/12/25 14:19:35;;;;;;;8.98;6.05;;;10.40;99.90;;;;;;6259239;23;20424;-67
2022/12/25 14:22:22;;;;;;;10.75;5.60;;;10.30;99.90;;;;;;6257963;23;20342;-63
2022/12/25 14:24:55;;;;;;;10.38;6.32;;;10.20;99.90;;;;;;6388212;23;20396;-66
2022/12/25 14:27:32;;;;;;;9.50;6.25;;;10.20;99.90;;;;;;6362346;23;20017;-66
2022/12/25 14:30:04;;;;;;;9.75;5.85;;;10.10;99.90;;;;;;6262460;23;19995;-69
2022/12/25 14:32:46;;;;;;;8.85;5.53;;;10.00;99.90;;;;;;6360954;23;20009;-65
2022/12/25 14:35:25;;;;;;;11.20;6.15;;;9.90;99.90;;;;;;6251995;23;20009;-66
2022/12/25 14:37:59;;;;;;;15.55;6.90;;;9.80;99.90;;;;;;6360737;23;20050;-65
2022/12/25 14:40:31;;;;;;;9.20;7.05;;;9.70;99.90;;;;;;6261403;23;19999;-68
2022/12/25 14:43:28;;;;;;;9.60;6.93;;;9.60;99.90;;;;;;6237301;23;19995;-68
2022/12/25 14:46:05;;;;;;;10.20;6.53;;;9.50;99.90;;;;;;6362302;23;20007;-67
2022/12/25 14:48:37;;;;;;;11.85;8.05;;;9.40;99.90;;;;;;6360820;23;20003;-65
2022/12/25 14:51:16;;;;;;;8.48;6.68;;;9.30;99.90;;;;;;6261607;23;20003;-65
2022/12/25 14:53:57;;;;;;;7.70;6.30;;;9.20;99.90;;;;;;6262201;23;20044;-66
2022/12/25 14:56:37;;;;;;;12.13;6.78;;;9.10;99.90;;;;;;6386330;23;20017;-65
2022/12/25 14:59:17;;;;;;;11.70;7.07;;;9.00;99.90;;;;;;6262511;23;20419;-65
2022/12/25 15:02:02;;;;;;;13.27;7.63;;;8.90;99.90;;;;;;6362226;23;20009;-67
2022/12/25 15:04:40;;;;;;;11.45;7.00;;;8.80;99.90;;;;;;6378314;23;20028;-66
2022/12/25 15:07:44;;;;;;;10.52;6.90;;;8.80;99.90;;;;;;6238221;23;20025;-65
2022/12/25 15:10:23;;;;;;;10.70;7.38;;;8.70;99.90;;;;;;6152031;23;20011;-65
2022/12/25 15:12:57;;;;;;;12.52;7.53;;;8.60;99.90;;;;;;6181850;24;20004;-63
2022/12/25 15:15:33;;;;;;;11.27;7.43;;;8.60;99.90;;;;;;6172569;23;20010;-69
2022/12/25 15:18:07;;;;;;;12.02;7.70;;;8.50;99.90;;;;;;6147152;24;20012;-68
2022/12/25 15:20:47;;;;;;;11.15;7.68;;;8.50;99.90;;;;;;6149748;23;20081;-65
2022/12/25 15:23:24;;;;;;;11.60;8.07;;;8.50;99.90;;;;;;6172919;24;20131;-65
2022/12/25 15:25:58;;;;;;;12.75;8.18;;;8.40;99.90;;;;;;6172852;24;20010;-65
2022/12/25 15:28:31;;;;;;;13.13;9.30;;;8.40;99.90;;;;;;6150157;23;20005;-67
2022/12/25 15:31:19;;;;;;;14.73;9.00;;;8.30;99.90;;;;;;6172136;24;20016;-68
2022/12/25 15:33:52;;;;;;;12.75;8.18;;;8.30;99.90;;;;;;6150543;23;20186;-67
2022/12/25 15:36:28;;;;;;;17.65;9.40;;;8.20;99.90;;;;;;6181085;24;20012;-66
2022/12/25 15:39:01;;;;;;;13.13;8.95;;;8.20;99.90;;;;;;6172249;24;20004;-65
2022/12/25 15:44:29;;;;;;;14.95;8.98;;;8.20;99.90;;;;;;6148165;24;20488;-65
2022/12/25 15:47:01;;;;;;;14.75;8.60;;;8.30;99.90;;;;;;6282330;23;20077;-67
2022/12/25 15:49:34;;;;;;;14.77;9.13;;;8.20;99.90;;;;;;6361428;23;20003;-66
2022/12/25 15:52:15;;;;;;;13.95;8.40;;;8.20;99.90;;;;;;6260191;23;19998;-65
2022/12/25 15:54:47;;;;;;;11.82;8.18;;;8.30;99.90;;;;;;6260056;23;19994;-66
2022/12/25 15:57:20;;;;;;;12.07;7.85;;;8.30;99.90;;;;;;6360950;23;20329;-65
2022/12/25 15:59:55;;;;;;;13.02;7.80;;;8.20;99.90;;;;;;6238652;23;20003;-67
2022/12/25 16:02:27;;;;;;;12.30;7.72;;;8.20;99.90;;;;;;6263089;23;20009;-65
2022/12/25 16:04:58;;;;;;;12.55;8.38;;;8.10;99.90;;;;;;6383590;23;20008;-66
2022/12/25 16:07:32;;;;;;;12.38;8.73;;;8.10;99.90;;;;;;6415565;23;20006;-64
2022/12/25 16:10:15;;;;;;;14.23;8.65;;;8.00;99.90;;;;;;6419230;23;19997;-64
2022/12/25 16:12:46;;;;;;;15.93;9.38;;;7.90;99.90;;;;;;6428209;23;19996;-65
2022/12/25 16:15:17;;;;;;;19.80;12.43;;;7.70;99.90;;;;;;6418986;23;20095;-66
2022/12/25 16:17:48;;;;;;;14.90;10.27;;;7.60;99.90;;;;;;6418320;23;20209;-66
2022/12/25 16:20:25;;;;;;;18.58;9.57;;;7.50;99.90;;;;;;6391227;23;20000;-66
2022/12/25 16:23:01;;;;;;;15.00;9.27;;;7.50;99.90;;;;;;6416527;23;20258;-67
2022/12/25 16:25:34;;;;;;;21.25;10.80;;;7.50;99.90;;;;;;6418556;23;20123;-65
2022/12/25 16:28:12;;;;;;;17.55;10.13;;;7.50;99.90;;;;;;6419527;23;19997;-66
2022/12/25 16:30:48;;;;;;;15.82;10.23;;;7.40;99.90;;;;;;6392319;23;20000;-66
2022/12/25 16:33:22;;;;;;;18.30;11.18;;;7.30;99.90;;;;;;6416465;23;19996;-65
2022/12/25 16:35:54;;;;;;;16.73;10.80;;;7.20;99.90;;;;;;6418558;23;20219;-66
2022/12/25 16:38:27;;;;;;;18.17;10.77;;;7.10;99.90;;;;;;6415178;23;19992;-66
2022/12/25 16:41:00;;;;;;;14.07;9.97;;;7.10;99.90;;;;;;6418690;23;20043;-65
2022/12/25 16:43:31;;;;;;;17.70;11.70;;;7.00;99.90;;;;;;6391677;23;20221;-65
2022/12/25 16:46:14;;;;;;;17.77;12.85;;;7.10;99.90;;;;;;6419746;23;19992;-66
2022/12/25 16:48:46;;;;;;;20.33;13.00;;;7.10;99.90;;;;;;6419502;23;20290;-66
2022/12/25 16:51:23;;;;;;;22.85;13.90;;;7.10;99.90;;;;;;6391243;23;20045;-65
2022/12/25 16:53:55;;;;;;;17.52;11.85;;;7.10;99.90;;;;;;6391060;23;20052;-63
2022/12/25 16:56:29;;;;;;;20.63;12.02;;;7.10;99.90;;;;;;6416263;23;20001;-67
2022/12/25 16:59:01;;;;;;;23.80;13.32;;;7.10;99.90;;;;;;6419719;23;20105;-64
2022/12/25 17:01:32;;;;;;;25.73;14.63;;;7.10;99.90;;;;;;6418352;23;20011;-67
2022/12/25 17:04:06;;;;;;;22.70;14.05;;;7.00;99.90;;;;;;6421702;23;20064;-66
2022/12/25 17:06:40;;;;;;;21.52;13.13;;;6.90;99.90;;;;;;6377785;23;20008;-65
2022/12/25 17:09:16;;;;;;;23.02;14.30;;;6.70;99.90;;;;;;6418883;23;19989;-65
2022/12/25 17:11:50;;;;;;;30.33;16.17;;;6.70;99.90;;;;;;6417908;23;19989;-64
2022/12/25 17:14:24;;;;;;;28.05;17.05;;;6.80;99.90;;;;;;6418030;23;19999;-68
2022/12/25 17:16:55;;;;;;;26.48;16.85;;;6.80;99.90;;;;;;6419513;23;20173;-64
2022/12/25 17:19:27;;;;;;;25.77;15.05;;;6.70;99.90;;;;;;6417930;23;20002;-65
2022/12/25 17:21:58;;;;;;;21.95;15.30;;;6.70;99.90;;;;;;6421231;23;19995;-67
2022/12/25 17:24:35;;;;;;;24.45;13.98;;;6.60;99.90;;;;;;6422894;23;20321;-63
2022/12/25 17:27:14;;;;;;;23.15;13.70;;;6.50;99.90;;;;;;6420556;23;19992;-65
2022/12/25 17:29:51;;;;;;;22.60;14.80;;;6.40;99.90;;;;;;6421172;23;19993;-63
2022/12/25 17:32:30;;;;;;;22.60;13.27;;;6.30;99.90;;;;;;6422911;23;20052;-64
2022/12/25 17:35:02;;;;;;;23.15;13.68;;;6.30;99.90;;;;;;6420562;23;20343;-67
2022/12/25 17:37:35;;;;;;;25.85;14.90;;;6.20;99.90;;;;;;6421894;23;19996;-66
2022/12/25 17:40:11;;;;;;;23.17;14.63;;;6.20;99.90;;;;;;6418818;23;20019;-67
2022/12/25 17:42:42;;;;;;;23.60;15.25;;;6.10;99.90;;;;;;6369454;23;19997;-67
2022/12/25 17:45:13;;;;;;;21.75;14.52;;;6.10;99.90;;;;;;6418668;23;20044;-66
2022/12/25 17:47:47;;;;;;;24.08;14.55;;;5.90;99.90;;;;;;6420993;23;19992;-65
2022/12/25 17:50:18;;;;;;;23.80;15.73;;;5.80;99.90;;;;;;6418304;23;19997;-67
2022/12/25 17:52:51;;;;;;;27.85;16.83;;;5.80;99.90;;;;;;6418690;23;20209;-65
2022/12/25 17:55:35;;;;;;;22.23;15.80;;;5.70;99.90;;;;;;6419265;23;20146;-64
2022/12/25 17:58:12;;;;;;;22.88;14.15;;;5.70;99.90;;;;;;6430638;23;20000;-68
2022/12/25 18:00:45;;;;;;;25.85;15.90;;;5.60;99.90;;;;;;6421893;23;20039;-65
2022/12/25 18:03:17;;;;;;;26.52;15.57;;;5.50;99.90;;;;;;6417936;23;20000;-66
2022/12/25 18:05:50;;;;;;;23.45;13.55;;;5.50;99.90;;;;;;6305175;23;20007;-65
2022/12/25 18:08:22;;;;;;;21.20;12.93;;;5.50;99.90;;;;;;6267436;23;19999;-65
2022/12/25 18:10:55;;;;;;;21.55;14.00;;;5.40;99.90;;;;;;6236913;23;20060;-64
2022/12/25 18:13:30;;;;;;;24.27;14.93;;;5.40;99.90;;;;;;6264257;23;19997;-65
2022/12/25 18:16:05;;;;;;;22.08;14.05;;;5.40;99.90;;;;;;6263881;23;20191;-65
2022/12/25 18:18:37;;;;;;;25.15;15.48;;;5.40;99.90;;;;;;6263146;23;20391;-65
2022/12/25 18:21:11;;;;;;;25.95;15.43;;;5.30;99.90;;;;;;6263115;23;20006;-65
2022/12/25 18:23:43;;;;;;;30.55;16.73;;;5.10;99.90;;;;;;6260519;23;20013;-64
2022/12/25 18:26:14;;;;;;;26.42;16.33;;;5.00;99.90;;;;;;6262636;23;20003;-66
2022/12/25 18:28:48;;;;;;;27.48;16.70;;;5.00;99.90;;;;;;6261509;23;20003;-64
2022/12/25 18:31:21;;;;;;;;;;;4.90;99.90;;;;;;6262413;23;20007;-63
2022/12/25 18:33:55;;;;;;;25.27;15.52;;;4.80;99.90;;;;;;6263008;23;19905;-64
2022/12/25 18:36:29;;;;;;;25.23;15.10;;;4.80;99.90;;;;;;6262212;23;20489;-66
2022/12/25 18:39:03;;;;;;;26.08;16.17;;;4.70;99.90;;;;;;6237945;23;19999;-66
2022/12/25 18:42:37;;;;;;;51.05;27.58;;;4.70;99.90;;;;;;6271300;23;19999;-66